createdAt,value
2022-10-25T00:02:25.177Z,2.43
2022-10-25T00:04:52.318Z,2.05
2022-10-25T00:07:19.188Z,1.88
2022-10-25T00:09:46.063Z,1.60
2022-10-25T00:12:13.002Z,2.00
2022-10-25T00:14:39.923Z,2.13
2022-10-25T00:17:06.927Z,1.70
2022-10-25T00:19:33.819Z,1.87
2022-10-25T00:22:00.903Z,1.80
2022-10-25T00:24:27.956Z,1.53
2022-10-25T00:26:54.806Z,1.50
2022-10-25T00:29:21.758Z,1.67
2022-10-25T00:31:48.682Z,1.57
2022-10-25T00:34:15.568Z,1.97
2022-10-25T00:36:42.460Z,2.10
2022-10-25T00:39:09.653Z,2.30
2022-10-25T00:41:36.621Z,1.60
2022-10-25T00:44:40.629Z,1.90
2022-10-25T00:47:21.671Z,1.80
2022-10-25T00:49:54.753Z,1.77
2022-10-25T00:52:22.017Z,1.90
2022-10-25T00:54:53.818Z,1.90
2022-10-25T00:57:29.816Z,2.30
2022-10-25T00:59:57.010Z,1.80
2022-10-25T01:02:24.152Z,1.47
2022-10-25T01:04:51.651Z,1.80
2022-10-25T01:07:18.553Z,1.97
2022-10-25T01:09:45.677Z,1.40
2022-10-25T01:12:12.578Z,1.87
2022-10-25T01:14:44.339Z,1.80
2022-10-25T01:17:20.015Z,2.00
2022-10-25T01:20:26.684Z,1.70
2022-10-25T01:23:21.159Z,1.70
2022-10-25T01:26:37.428Z,1.90
2022-10-25T01:29:16.065Z,1.60
2022-10-25T01:31:53.267Z,1.73
2022-10-25T01:34:28.978Z,1.97
2022-10-25T01:37:07.360Z,2.10
2022-10-25T01:40:05.892Z,2.07
2022-10-25T01:42:49.356Z,2.00
2022-10-25T01:45:38.742Z,2.07
2022-10-25T01:48:14.975Z,2.60
2022-10-25T01:50:46.238Z,1.70
2022-10-25T01:53:13.395Z,1.90
2022-10-25T01:55:57.440Z,2.60
2022-10-25T01:58:43.652Z,2.20
2022-10-25T02:02:04.852Z,1.40
2022-10-25T02:04:44.232Z,1.93
2022-10-25T02:07:19.271Z,1.90
2022-10-25T02:10:24.552Z,1.70
2022-10-25T02:13:15.429Z,1.93
2022-10-25T02:15:52.779Z,1.87
2022-10-25T02:18:24.911Z,1.50
2022-10-25T02:20:54.898Z,1.97
2022-10-25T02:23:23.468Z,2.45
2022-10-25T02:25:51.424Z,1.67
2022-10-25T02:28:20.971Z,1.70
2022-10-25T02:30:49.735Z,1.83
2022-10-25T02:33:16.673Z,1.80
2022-10-25T02:35:43.548Z,1.93
2022-10-25T02:38:10.565Z,1.70
2022-10-25T02:40:37.860Z,1.90
2022-10-25T02:43:04.740Z,2.00
2022-10-25T02:45:31.628Z,1.73
2022-10-25T02:47:58.502Z,1.90
2022-10-25T02:50:25.411Z,2.00
2022-10-25T02:52:52.346Z,1.57
2022-10-25T02:55:19.244Z,1.70
2022-10-25T02:57:46.137Z,2.10
2022-10-25T03:00:14.016Z,1.77
2022-10-25T03:02:40.905Z,2.00
2022-10-25T03:05:08.369Z,1.53
2022-10-25T03:07:35.265Z,1.87
2022-10-25T03:10:02.218Z,2.00
2022-10-25T03:12:29.145Z,2.20
2022-10-25T03:14:56.022Z,2.33
2022-10-25T03:17:22.926Z,2.30
2022-10-25T03:19:49.784Z,1.80
2022-10-25T03:22:16.709Z,1.80
2022-10-25T03:24:43.639Z,1.90
2022-10-25T03:27:10.567Z,2.00
2022-10-25T03:29:37.505Z,2.30
2022-10-25T03:32:05.660Z,2.20
2022-10-25T03:34:32.541Z,2.60
2022-10-25T03:36:59.494Z,2.13
2022-10-25T03:39:26.494Z,2.63
2022-10-25T03:41:53.400Z,2.47
2022-10-25T03:44:20.523Z,2.87
2022-10-25T03:46:47.453Z,2.60
2022-10-25T03:49:14.398Z,2.73
2022-10-25T03:51:41.387Z,2.83
2022-10-25T03:54:08.453Z,2.80
2022-10-25T03:56:35.428Z,2.70
2022-10-25T03:59:02.414Z,3.00
2022-10-25T04:01:29.380Z,2.57
2022-10-25T04:03:56.358Z,3.00
2022-10-25T04:06:23.361Z,2.90
2022-10-25T04:08:50.307Z,3.57
2022-10-25T04:11:17.340Z,3.07
2022-10-25T04:13:44.317Z,2.60
2022-10-25T04:16:12.415Z,3.03
2022-10-25T04:18:40.831Z,2.87
2022-10-25T04:21:07.741Z,2.93
2022-10-25T04:23:34.720Z,3.40
2022-10-25T04:26:01.735Z,2.87
2022-10-25T04:28:28.672Z,4.10
2022-10-25T04:30:55.589Z,3.53
2022-10-25T04:33:22.593Z,3.23
2022-10-25T04:35:57.273Z,3.70
2022-10-25T04:38:24.701Z,3.43
2022-10-25T04:40:59.809Z,2.90
2022-10-25T04:43:29.065Z,3.37
2022-10-25T04:46:00.596Z,3.20
2022-10-25T04:48:27.839Z,3.17
2022-10-25T04:50:54.738Z,3.17
2022-10-25T04:53:21.676Z,3.20
2022-10-25T04:56:04.086Z,2.97
2022-10-25T04:58:32.113Z,3.00
2022-10-25T05:01:04.840Z,2.80
2022-10-25T05:03:32.554Z,3.07
2022-10-25T05:06:18.276Z,3.27
2022-10-25T05:08:48.807Z,2.83
2022-10-25T05:11:18.944Z,3.37
2022-10-25T05:13:46.540Z,3.37
2022-10-25T05:16:20.435Z,4.10
2022-10-25T05:18:47.502Z,2.93
2022-10-25T05:21:16.303Z,3.63
2022-10-25T05:23:43.499Z,3.30
2022-10-25T05:26:20.195Z,3.33
2022-10-25T05:28:49.993Z,3.20
2022-10-25T05:31:20.306Z,3.67
2022-10-25T05:33:51.254Z,3.10
2022-10-25T05:36:19.080Z,2.97
2022-10-25T05:38:46.769Z,3.27
2022-10-25T05:41:16.368Z,2.93
2022-10-25T05:43:44.200Z,2.80
2022-10-25T05:46:14.601Z,2.97
2022-10-25T05:48:47.284Z,3.30
2022-10-25T05:51:34.748Z,2.63
2022-10-25T05:54:11.771Z,2.50
2022-10-25T05:56:39.541Z,2.80
2022-10-25T05:59:09.960Z,3.33
2022-10-25T06:01:55.135Z,3.13
2022-10-25T06:04:22.842Z,2.67
2022-10-25T06:06:52.168Z,2.83
2022-10-25T06:09:19.168Z,3.13
2022-10-25T06:11:46.125Z,4.17
2022-10-25T06:14:13.088Z,2.80
2022-10-25T06:16:40.197Z,3.17
2022-10-25T06:19:07.431Z,3.80
2022-10-25T06:21:34.382Z,3.73
2022-10-25T06:24:01.730Z,3.60
2022-10-25T06:26:30.542Z,2.70
2022-10-25T06:29:01.082Z,2.90
2022-10-25T06:31:29.943Z,3.43
2022-10-25T06:33:56.924Z,3.60
2022-10-25T06:36:26.853Z,3.80
2022-10-25T06:38:54.346Z,3.30
2022-10-25T06:41:31.532Z,3.23
2022-10-25T06:44:05.304Z,4.23
2022-10-25T06:46:57.866Z,3.90
2022-10-25T06:49:24.116Z,4.20
2022-10-25T06:51:51.028Z,3.60
2022-10-25T06:54:17.976Z,3.40
2022-10-25T06:56:44.842Z,3.43
2022-10-25T06:59:11.846Z,3.57
2022-10-25T07:01:38.809Z,4.70
2022-10-25T07:04:05.904Z,3.70
2022-10-25T07:06:35.836Z,3.27
2022-10-25T07:09:05.068Z,3.73
2022-10-25T07:11:33.281Z,4.00
2022-10-25T07:14:01.528Z,4.03
2022-10-25T07:16:29.047Z,3.33
2022-10-25T07:19:04.093Z,3.30
2022-10-25T07:21:32.684Z,3.60
2022-10-25T07:23:59.675Z,4.00
2022-10-25T07:26:30.943Z,4.03
2022-10-25T07:28:59.962Z,3.60
2022-10-25T07:31:36.633Z,3.90
2022-10-25T07:34:05.745Z,3.50
2022-10-25T07:36:33.257Z,3.70
2022-10-25T07:39:00.846Z,3.83
2022-10-25T07:41:27.859Z,3.93
2022-10-25T07:43:55.498Z,3.90
2022-10-25T07:46:22.988Z,4.07
2022-10-25T07:48:50.201Z,3.43
2022-10-25T07:51:18.444Z,12.20
2022-10-25T07:53:45.375Z,2.53
2022-10-25T07:56:22.239Z,2.30
2022-10-25T07:58:53.865Z,2.33
2022-10-25T08:01:27.009Z,2.40
2022-10-25T08:03:55.457Z,2.00
2022-10-25T08:06:24.508Z,2.30
2022-10-25T08:08:51.545Z,1.90
2022-10-25T08:11:19.022Z,1.97
2022-10-25T08:13:49.727Z,2.43
2022-10-25T08:16:16.809Z,2.50
2022-10-25T08:18:44.183Z,2.38
2022-10-25T08:21:11.169Z,2.60
2022-10-25T08:23:38.111Z,2.08
2022-10-25T08:26:05.161Z,2.20
2022-10-25T08:28:32.097Z,2.10
2022-10-25T08:31:01.182Z,2.05
2022-10-25T08:33:29.817Z,2.53
2022-10-25T08:36:00.122Z,2.17
2022-10-25T08:38:27.028Z,2.35
2022-10-25T08:41:09.991Z,2.20
2022-10-25T08:46:43.930Z,2.00
2022-10-25T08:49:26.710Z,2.10
2022-10-25T08:51:55.858Z,2.22
2022-10-25T08:54:29.182Z,2.05
2022-10-25T08:57:15.617Z,2.10
2022-10-25T08:59:49.960Z,2.00
2022-10-25T09:02:36.722Z,2.50
2022-10-25T09:05:04.826Z,1.88
2022-10-25T09:08:02.451Z,2.28
2022-10-25T09:10:55.572Z,2.10
2022-10-25T09:13:40.314Z,2.22
2022-10-25T09:16:16.828Z,2.08
2022-10-25T09:18:52.037Z,2.05
2022-10-25T09:21:53.568Z,1.92
2022-10-25T09:24:58.964Z,2.17
2022-10-25T09:28:03.644Z,1.88
2022-10-25T09:30:37.639Z,1.90
2022-10-25T09:33:11.334Z,1.80
2022-10-25T09:35:45.077Z,1.88
2022-10-25T09:38:28.564Z,1.90
2022-10-25T09:41:06.199Z,2.20
2022-10-25T09:43:45.748Z,1.75
2022-10-25T09:46:32.040Z,1.83
2022-10-25T09:49:13.101Z,1.90
2022-10-25T09:52:24.174Z,1.52
2022-10-25T09:55:21.572Z,1.75
2022-10-25T09:57:48.976Z,1.80
2022-10-25T10:00:16.702Z,1.67
2022-10-25T10:02:43.744Z,2.63
2022-10-25T10:05:20.312Z,1.70
2022-10-25T10:07:50.038Z,1.70
2022-10-25T10:10:22.944Z,1.85
2022-10-25T10:13:04.781Z,2.85
2022-10-25T10:15:51.674Z,1.70
2022-10-25T10:18:34.732Z,2.15
2022-10-25T10:21:08.535Z,1.92
2022-10-25T10:24:02.373Z,1.80
2022-10-25T10:26:38.589Z,1.83
2022-10-25T10:29:57.467Z,1.60
2022-10-25T10:32:33.221Z,1.40
2022-10-25T10:35:01.806Z,1.60
2022-10-25T10:37:31.813Z,2.42
2022-10-25T10:40:24.652Z,1.75
2022-10-25T10:42:52.831Z,1.60
2022-10-25T10:45:21.638Z,1.67
2022-10-25T10:47:51.582Z,1.75
2022-10-25T10:50:27.266Z,2.25
2022-10-25T10:53:17.159Z,1.90
2022-10-25T10:55:51.726Z,1.42
2022-10-25T10:58:35.681Z,1.60
2022-10-25T11:01:12.796Z,1.60
2022-10-25T11:03:59.527Z,2.03
2022-10-25T11:06:35.238Z,1.80
2022-10-25T11:09:17.836Z,1.80
2022-10-25T11:12:05.422Z,1.50
2022-10-25T11:14:32.518Z,1.75
2022-10-25T11:17:03.989Z,1.38
2022-10-25T11:20:00.707Z,1.50
2022-10-25T11:22:58.920Z,1.40
2022-10-25T11:25:47.110Z,1.58
2022-10-25T11:28:19.618Z,1.85
2022-10-25T11:31:10.873Z,1.55
2022-10-25T11:33:50.348Z,1.48
2022-10-25T11:36:42.324Z,1.60
2022-10-25T11:39:38.792Z,1.45
2022-10-25T11:43:03.238Z,1.30
2022-10-25T11:45:41.817Z,1.13
2022-10-25T11:48:35.576Z,1.38
2022-10-25T11:51:41.642Z,1.10
2022-10-25T11:54:33.828Z,1.30
2022-10-25T11:57:22.257Z,1.50
2022-10-25T12:00:16.411Z,1.30
2022-10-25T12:03:13.169Z,1.05
2022-10-25T12:06:08.524Z,1.38
2022-10-25T12:08:59.893Z,1.30
2022-10-25T12:11:43.560Z,1.20
2022-10-25T12:14:18.457Z,1.25
2022-10-25T12:16:46.072Z,1.08
2022-10-25T12:19:24.931Z,1.35
2022-10-25T12:22:08.643Z,1.75
2022-10-25T12:25:09.035Z,1.23
2022-10-25T12:27:37.148Z,1.20
2022-10-25T12:30:10.701Z,1.27
2022-10-25T12:33:10.225Z,1.38
2022-10-25T12:35:50.368Z,1.30
2022-10-25T12:38:37.883Z,1.50
2022-10-25T12:41:20.787Z,1.27
2022-10-25T12:44:24.504Z,1.23
2022-10-25T12:47:09.460Z,1.58
2022-10-25T12:50:36.075Z,1.60
2022-10-25T12:53:16.455Z,1.45
2022-10-25T12:56:07.162Z,1.23
2022-10-25T12:59:01.678Z,1.10
2022-10-25T13:01:49.805Z,1.20
2022-10-25T13:04:47.405Z,1.30
2022-10-25T13:07:15.731Z,1.50
2022-10-25T13:09:42.861Z,1.00
2022-10-25T13:12:26.294Z,1.60
2022-10-25T13:14:58.417Z,1.13
2022-10-25T13:17:25.217Z,1.30
2022-10-25T13:22:51.250Z,1.13
2022-10-25T13:25:50.041Z,1.30
2022-10-25T13:28:16.823Z,1.25
2022-10-25T13:30:44.864Z,1.30
2022-10-25T13:33:24.376Z,1.10
2022-10-25T13:35:51.311Z,1.33
2022-10-25T13:38:38.890Z,1.10
2022-10-25T13:41:17.575Z,1.20
2022-10-25T13:44:04.611Z,1.10
2022-10-25T13:46:38.705Z,1.20
2022-10-25T13:49:40.535Z,1.38
2022-10-25T13:52:23.151Z,1.38
2022-10-25T13:54:55.225Z,1.20
2022-10-25T13:57:50.126Z,1.52
2022-10-25T14:00:40.624Z,1.40
2022-10-25T14:03:10.626Z,1.80
2022-10-25T14:05:55.999Z,1.58
2022-10-25T14:08:39.884Z,1.40
2022-10-25T14:11:13.510Z,1.20
2022-10-25T14:14:16.530Z,1.30
2022-10-25T14:17:07.463Z,1.08
2022-10-25T14:19:48.099Z,1.48
2022-10-25T14:22:33.637Z,1.35
2022-10-25T14:25:06.799Z,1.20
2022-10-25T14:27:36.156Z,1.20
2022-10-25T14:30:29.890Z,1.23
2022-10-25T14:33:04.410Z,1.50
2022-10-25T14:35:45.486Z,1.15
2022-10-25T14:38:22.181Z,1.30
2022-10-25T14:41:02.899Z,1.73
2022-10-25T14:43:36.576Z,1.50
2022-10-25T14:46:16.191Z,1.67
2022-10-25T14:48:46.926Z,1.48
2022-10-25T14:51:25.938Z,1.83
2022-10-25T14:54:16.619Z,1.48
2022-10-25T14:56:46.563Z,1.85
2022-10-25T14:59:28.646Z,2.28
2022-10-25T15:01:59.802Z,1.40
2022-10-25T15:04:49.330Z,1.88
2022-10-25T15:07:44.345Z,1.70
2022-10-25T15:10:35.876Z,2.17
2022-10-25T15:13:06.485Z,1.75
2022-10-25T15:15:42.266Z,1.77
2022-10-25T15:18:34.642Z,2.28
2022-10-25T15:21:10.462Z,1.40
2022-10-25T15:23:40.088Z,1.70
2022-10-25T15:26:30.503Z,2.05
2022-10-25T15:29:01.128Z,1.75
2022-10-25T15:31:31.173Z,1.77
2022-10-25T15:34:04.682Z,1.80
2022-10-25T15:36:34.362Z,1.60
2022-10-25T15:39:25.325Z,2.08
2022-10-25T15:41:52.219Z,1.65
2022-10-25T15:44:19.155Z,2.08
2022-10-25T15:46:48.951Z,1.67
2022-10-25T15:49:16.425Z,1.88
2022-10-25T15:51:45.654Z,1.48
2022-10-25T15:54:23.893Z,2.03
2022-10-25T15:56:51.925Z,1.90
2022-10-25T15:59:18.866Z,1.50
2022-10-25T16:01:49.579Z,1.50
2022-10-25T16:04:19.706Z,1.85
2022-10-25T16:06:47.824Z,1.60
2022-10-25T16:09:14.792Z,1.70
2022-10-25T16:11:46.979Z,1.50
2022-10-25T16:14:26.959Z,1.50
2022-10-25T16:16:53.873Z,1.90
2022-10-25T16:19:21.982Z,1.70
2022-10-25T16:21:49.101Z,1.70
2022-10-25T16:24:16.063Z,1.60
2022-10-25T16:26:48.340Z,2.00
2022-10-25T16:29:22.792Z,1.48
2022-10-25T16:31:50.314Z,1.85
2022-10-25T16:34:19.399Z,1.80
2022-10-25T16:36:48.046Z,1.88
2022-10-25T16:39:15.239Z,1.90
2022-10-25T16:41:46.643Z,1.77
2022-10-25T16:44:18.985Z,1.70
2022-10-25T16:46:46.626Z,1.80
2022-10-25T16:49:14.046Z,2.30
2022-10-25T16:51:41.661Z,2.13
2022-10-25T16:54:10.793Z,2.20
2022-10-25T16:56:37.682Z,1.90
2022-10-25T16:59:04.613Z,2.28
2022-10-25T17:01:34.905Z,1.67
2022-10-25T17:04:04.616Z,2.53
2022-10-25T17:06:46.957Z,2.63
2022-10-25T17:09:13.948Z,2.73
2022-10-25T17:11:41.326Z,2.30
2022-10-25T17:14:09.795Z,2.40
2022-10-25T17:16:42.485Z,2.17
2022-10-25T17:19:11.060Z,2.40
2022-10-25T17:21:38.260Z,2.53
2022-10-25T17:24:06.716Z,3.00
2022-10-25T17:26:33.604Z,2.58
2022-10-25T17:29:01.117Z,2.85
2022-10-25T17:31:28.738Z,3.27
2022-10-25T17:33:56.818Z,3.50
2022-10-25T17:36:23.784Z,3.10
2022-10-25T17:38:50.790Z,3.57
2022-10-25T17:41:18.451Z,3.43
2022-10-25T17:43:45.435Z,3.50
2022-10-25T17:46:25.896Z,3.20
2022-10-25T17:49:03.337Z,3.07
2022-10-25T17:51:32.816Z,3.83
2022-10-25T17:54:00.108Z,3.60
2022-10-25T17:56:28.078Z,3.37
2022-10-25T17:58:58.232Z,3.27
2022-10-25T18:01:27.820Z,3.30
2022-10-25T18:03:55.654Z,3.60
2022-10-25T18:06:25.604Z,3.60
2022-10-25T18:08:58.965Z,3.53
2022-10-25T18:11:28.375Z,3.50
2022-10-25T18:14:00.747Z,3.37
2022-10-25T18:16:31.154Z,3.07
2022-10-25T18:19:02.140Z,3.63
2022-10-25T18:21:30.243Z,3.50
2022-10-25T18:23:59.934Z,3.80
2022-10-25T18:26:27.880Z,3.83
2022-10-25T18:28:54.859Z,3.83
2022-10-25T18:31:22.526Z,4.17
2022-10-25T18:33:49.463Z,4.27
2022-10-25T18:36:19.526Z,4.10
2022-10-25T18:38:48.255Z,4.40
2022-10-25T18:41:23.279Z,4.33
2022-10-25T18:43:51.036Z,5.00
2022-10-25T18:46:18.437Z,4.33
2022-10-25T18:48:51.156Z,3.77
2022-10-25T18:51:19.229Z,4.00
2022-10-25T18:53:46.278Z,5.43
2022-10-25T18:56:19.598Z,4.37
2022-10-25T18:58:49.167Z,4.47
2022-10-25T19:01:26.046Z,4.10
2022-10-25T19:03:53.307Z,3.77
2022-10-25T19:06:20.285Z,3.77
2022-10-25T19:08:49.217Z,3.63
2022-10-25T19:11:16.627Z,3.53
2022-10-25T19:13:47.501Z,3.30
2022-10-25T19:16:17.439Z,4.00
2022-10-25T19:18:44.387Z,3.87
2022-10-25T19:21:13.903Z,4.23
2022-10-25T19:23:42.755Z,3.70
2022-10-25T19:26:13.332Z,3.70
2022-10-25T19:28:40.283Z,3.70
2022-10-25T19:31:16.949Z,4.23
2022-10-25T19:33:51.558Z,4.30
2022-10-25T19:36:19.999Z,4.70
2022-10-25T19:38:48.776Z,3.80
2022-10-25T19:41:19.671Z,3.70
2022-10-25T19:43:47.388Z,3.67
2022-10-25T19:46:15.157Z,3.83
2022-10-25T19:48:42.372Z,3.40
2022-10-25T19:51:19.117Z,3.40
2022-10-25T19:53:46.166Z,3.10
2022-10-25T19:56:19.981Z,3.00
2022-10-25T19:58:47.386Z,3.03
2022-10-25T20:01:18.242Z,3.10
2022-10-25T20:03:49.327Z,3.53
2022-10-25T20:06:23.505Z,3.13
2022-10-25T20:08:53.209Z,3.40
2022-10-25T20:11:21.444Z,3.33
2022-10-25T20:13:48.504Z,4.10
2022-10-25T20:16:15.611Z,3.10
2022-10-25T20:18:43.024Z,3.20
2022-10-25T20:21:17.685Z,3.28
2022-10-25T20:23:49.804Z,2.65
2022-10-25T20:26:25.893Z,3.30
2022-10-25T20:28:55.662Z,2.88
2022-10-25T20:31:24.601Z,3.30
2022-10-25T20:33:52.674Z,3.03
2022-10-25T20:36:20.149Z,3.00
2022-10-25T20:38:47.322Z,2.83
2022-10-25T20:41:20.770Z,3.20
2022-10-25T20:43:53.589Z,3.30
2022-10-25T20:46:23.820Z,3.33
2022-10-25T20:48:51.756Z,3.80
2022-10-25T20:51:19.110Z,2.87
2022-10-25T20:53:48.670Z,3.20
2022-10-25T20:56:17.553Z,3.30
2022-10-25T20:58:44.856Z,3.03
2022-10-25T21:01:12.664Z,2.80
2022-10-25T21:03:40.572Z,2.80
2022-10-25T21:06:10.593Z,3.23
2022-10-25T21:08:38.068Z,3.30
2022-10-25T21:11:09.321Z,3.10
2022-10-25T21:13:37.482Z,3.17
2022-10-25T21:16:14.042Z,2.97
2022-10-25T21:18:42.430Z,3.20
2022-10-25T21:21:19.690Z,3.20
2022-10-25T21:23:47.926Z,3.00
2022-10-25T21:26:15.574Z,3.00
2022-10-25T21:28:42.717Z,2.90
2022-10-25T21:31:13.263Z,2.90
2022-10-25T21:33:46.490Z,2.70
2022-10-25T21:36:17.309Z,2.90
2022-10-25T21:38:44.307Z,3.00
2022-10-25T21:41:19.774Z,3.00
2022-10-25T21:43:49.193Z,3.33
2022-10-25T21:46:18.451Z,2.80
2022-10-25T21:48:50.734Z,3.30
2022-10-25T21:51:24.245Z,3.07
2022-10-25T21:56:30.035Z,3.20
2022-10-25T21:58:59.312Z,2.93
2022-10-25T22:01:28.844Z,3.20
2022-10-25T22:03:55.961Z,2.80
2022-10-25T22:06:25.569Z,2.70
2022-10-25T22:08:55.154Z,2.90
2022-10-25T22:11:26.077Z,2.63
2022-10-25T22:14:02.777Z,3.57
2022-10-25T22:16:31.678Z,3.33
2022-10-25T22:19:03.065Z,3.20
2022-10-25T22:21:36.708Z,3.00
2022-10-25T22:24:05.418Z,3.13
2022-10-25T22:26:32.542Z,2.90
2022-10-25T22:29:00.216Z,3.07
2022-10-25T22:31:29.852Z,2.80
2022-10-25T22:34:03.865Z,2.40
2022-10-25T22:36:38.303Z,2.77
2022-10-25T22:39:07.122Z,2.80
2022-10-25T22:41:34.470Z,2.80
2022-10-25T22:44:01.879Z,2.40
2022-10-25T22:46:32.724Z,2.90
2022-10-25T22:49:05.118Z,2.30
2022-10-25T22:51:32.323Z,2.78
2022-10-25T22:53:59.228Z,3.00
2022-10-25T22:56:30.865Z,2.20
2022-10-25T22:59:01.387Z,2.73
2022-10-25T23:01:34.147Z,2.90
2022-10-25T23:04:04.226Z,2.03
2022-10-25T23:06:38.300Z,2.70
2022-10-25T23:09:11.734Z,2.47
2022-10-25T23:11:40.507Z,2.43
2022-10-25T23:14:13.350Z,2.67
2022-10-25T23:16:43.536Z,2.37
2022-10-25T23:19:10.436Z,2.50
2022-10-25T23:21:37.318Z,2.20
2022-10-25T23:24:04.625Z,2.37
2022-10-25T23:26:34.233Z,2.10
2022-10-25T23:29:02.275Z,2.37
2022-10-25T23:31:30.446Z,2.50
2022-10-25T23:34:00.211Z,1.90
2022-10-25T23:36:30.522Z,2.10
2022-10-25T23:38:58.927Z,2.10
2022-10-25T23:41:25.888Z,2.20
2022-10-25T23:43:52.998Z,2.27
2022-10-25T23:46:20.252Z,2.17
2022-10-25T23:48:47.475Z,2.17
2022-10-25T23:51:17.911Z,2.57
2022-10-25T23:53:45.618Z,2.10
2022-10-25T23:56:13.959Z,2.08
2022-10-25T23:58:41.329Z,1.97
